createdAt,value
2023-03-27T00:02:01.402Z,2.20
2023-03-27T00:04:32.151Z,2.10
2023-03-27T00:07:04.961Z,2.10
2023-03-27T00:09:37.173Z,2.03
2023-03-27T00:12:08.130Z,2.57
2023-03-27T00:14:48.075Z,2.00
2023-03-27T00:17:19.679Z,2.30
2023-03-27T00:19:51.381Z,2.00
2023-03-27T00:22:22.057Z,2.20
2023-03-27T00:24:52.588Z,2.10
2023-03-27T00:27:25.231Z,2.10
2023-03-27T00:29:56.034Z,2.00
2023-03-27T00:32:26.828Z,2.17
2023-03-27T00:34:57.848Z,3.07
2023-03-27T00:37:28.554Z,1.60
2023-03-27T00:39:59.552Z,2.07
2023-03-27T00:42:30.136Z,2.10
2023-03-27T00:45:01.467Z,2.23
2023-03-27T00:47:37.465Z,1.87
2023-03-27T00:50:12.617Z,2.33
2023-03-27T00:52:48.453Z,2.00
2023-03-27T00:55:24.996Z,2.23
2023-03-27T00:57:59.475Z,2.03
2023-03-27T01:00:30.488Z,2.13
2023-03-27T01:03:04.645Z,2.10
2023-03-27T01:05:36.850Z,2.40
2023-03-27T01:08:08.883Z,2.40
2023-03-27T01:10:54.704Z,2.33
2023-03-27T01:13:40.290Z,3.00
2023-03-27T01:16:16.660Z,2.63
2023-03-27T01:19:05.179Z,2.30
2023-03-27T01:21:55.354Z,2.63
2023-03-27T01:24:51.311Z,2.20
2023-03-27T01:27:45.151Z,2.43
2023-03-27T01:30:18.961Z,2.20
2023-03-27T01:32:55.598Z,2.10
2023-03-27T01:35:59.343Z,2.10
2023-03-27T01:38:35.728Z,2.77
2023-03-27T01:41:19.942Z,2.20
2023-03-27T01:44:18.060Z,2.50
2023-03-27T01:47:09.562Z,2.60
2023-03-27T01:49:43.162Z,2.23
2023-03-27T01:52:16.856Z,1.93
2023-03-27T01:54:53.080Z,2.00
2023-03-27T01:57:29.460Z,2.43
2023-03-27T02:00:18.597Z,2.00
2023-03-27T02:03:00.349Z,2.53
2023-03-27T02:05:35.123Z,2.00
2023-03-27T02:08:14.427Z,2.10
2023-03-27T02:10:48.192Z,2.50
2023-03-27T02:13:24.481Z,2.33
2023-03-27T02:16:00.183Z,2.33
2023-03-27T02:18:36.637Z,2.20
2023-03-27T02:21:07.452Z,2.23
2023-03-27T02:23:38.851Z,2.10
2023-03-27T02:26:12.835Z,2.23
2023-03-27T02:29:05.728Z,2.60
2023-03-27T02:31:51.316Z,1.90
2023-03-27T02:34:40.517Z,2.33
2023-03-27T02:37:22.594Z,2.00
2023-03-27T02:40:23.154Z,2.17
2023-03-27T02:43:12.870Z,2.17
2023-03-27T02:45:50.265Z,2.00
2023-03-27T02:48:23.837Z,1.80
2023-03-27T02:51:00.301Z,1.90
2023-03-27T02:53:33.967Z,1.70
2023-03-27T02:56:09.515Z,2.00
2023-03-27T02:58:56.534Z,1.90
2023-03-27T03:01:30.221Z,1.77
2023-03-27T03:04:08.271Z,1.60
2023-03-27T03:06:40.551Z,1.60
2023-03-27T03:09:13.633Z,1.80
2023-03-27T03:11:50.347Z,1.63
2023-03-27T03:14:24.300Z,1.73
2023-03-27T03:16:54.894Z,1.60
2023-03-27T03:19:27.030Z,1.80
2023-03-27T03:22:00.767Z,1.77
2023-03-27T03:24:32.186Z,1.70
2023-03-27T03:27:05.102Z,1.80
2023-03-27T03:29:38.266Z,1.83
2023-03-27T03:32:10.399Z,1.87
2023-03-27T03:34:43.031Z,2.03
2023-03-27T03:37:13.805Z,1.93
2023-03-27T03:39:44.364Z,1.97
2023-03-27T03:42:22.912Z,1.80
2023-03-27T03:44:49.380Z,1.50
2023-03-27T03:47:19.909Z,1.37
2023-03-27T03:49:50.553Z,1.70
2023-03-27T03:52:21.084Z,1.80
2023-03-27T03:54:51.948Z,1.70
2023-03-27T03:57:22.620Z,2.03
2023-03-27T03:59:53.430Z,1.80
2023-03-27T04:02:30.124Z,1.90
2023-03-27T04:05:01.511Z,1.87
2023-03-27T04:07:35.343Z,2.00
2023-03-27T04:10:06.306Z,1.90
2023-03-27T04:12:38.450Z,2.20
2023-03-27T04:15:09.307Z,2.00
2023-03-27T04:17:40.675Z,2.10
2023-03-27T04:20:13.820Z,2.17
2023-03-27T04:22:51.321Z,2.20
2023-03-27T04:25:24.268Z,2.70
2023-03-27T04:27:56.960Z,2.70
2023-03-27T04:30:27.710Z,2.50
2023-03-27T04:32:59.858Z,2.50
2023-03-27T04:35:30.560Z,2.43
2023-03-27T04:38:02.613Z,2.80
2023-03-27T04:40:33.469Z,2.07
2023-03-27T04:43:04.187Z,2.27
2023-03-27T04:45:35.178Z,2.53
2023-03-27T04:48:08.153Z,2.60
2023-03-27T04:50:39.321Z,2.30
2023-03-27T04:53:09.969Z,2.27
2023-03-27T04:55:45.849Z,2.13
2023-03-27T04:58:16.318Z,2.03
2023-03-27T05:00:51.371Z,2.03
2023-03-27T05:03:23.894Z,2.30
2023-03-27T05:05:54.776Z,2.00
2023-03-27T05:08:25.540Z,2.00
2023-03-27T05:10:56.353Z,1.80
2023-03-27T05:13:28.490Z,1.90
2023-03-27T05:15:59.442Z,2.40
2023-03-27T05:18:30.880Z,1.93
2023-03-27T05:21:01.476Z,1.90
2023-03-27T05:23:32.452Z,2.10
2023-03-27T05:26:03.088Z,1.90
2023-03-27T05:28:34.011Z,1.93
2023-03-27T05:31:04.783Z,2.30
2023-03-27T05:33:37.932Z,1.80
2023-03-27T05:36:10.034Z,1.80
2023-03-27T05:38:42.526Z,1.87
2023-03-27T05:41:17.356Z,1.60
2023-03-27T05:43:50.138Z,1.97
2023-03-27T05:46:21.181Z,1.80
2023-03-27T05:48:52.915Z,1.87
2023-03-27T05:51:23.973Z,2.13
2023-03-27T05:53:55.986Z,1.77
2023-03-27T05:56:27.217Z,1.90
2023-03-27T05:58:57.703Z,2.15
2023-03-27T06:01:28.577Z,1.90
2023-03-27T06:03:59.839Z,2.10
2023-03-27T06:06:30.505Z,2.13
2023-03-27T06:09:01.368Z,2.43
2023-03-27T06:11:32.711Z,2.40
2023-03-27T06:14:06.809Z,2.13
2023-03-27T06:16:38.571Z,2.10
2023-03-27T06:19:09.337Z,2.07
2023-03-27T06:21:40.993Z,2.47
2023-03-27T06:24:11.555Z,2.07
2023-03-27T06:26:42.666Z,2.30
2023-03-27T06:29:13.243Z,2.07
2023-03-27T06:31:44.096Z,2.23
2023-03-27T06:34:15.057Z,2.40
2023-03-27T06:36:46.158Z,2.53
2023-03-27T06:39:18.255Z,2.57
2023-03-27T06:41:50.553Z,2.10
2023-03-27T06:44:27.130Z,2.10
2023-03-27T06:46:58.635Z,2.20
2023-03-27T06:49:29.216Z,1.73
2023-03-27T06:51:59.940Z,2.00
2023-03-27T06:54:33.786Z,1.67
2023-03-27T06:57:04.467Z,2.40
2023-03-27T06:59:36.213Z,2.30
2023-03-27T07:02:07.299Z,2.30
2023-03-27T07:04:38.216Z,2.40
2023-03-27T07:07:08.794Z,2.10
2023-03-27T07:09:40.162Z,2.50
2023-03-27T07:12:11.095Z,2.10
2023-03-27T07:14:41.570Z,2.47
2023-03-27T07:17:14.143Z,2.30
2023-03-27T07:19:45.007Z,2.30
2023-03-27T07:22:15.632Z,2.17
2023-03-27T07:24:46.419Z,2.10
2023-03-27T07:27:16.975Z,2.00
2023-03-27T07:29:47.727Z,2.10
2023-03-27T07:32:29.812Z,2.40
2023-03-27T07:34:54.424Z,2.53
2023-03-27T07:37:26.036Z,2.37
2023-03-27T07:39:57.494Z,2.50
2023-03-27T07:42:28.239Z,2.40
2023-03-27T07:44:59.059Z,2.27
2023-03-27T07:47:31.293Z,2.27
2023-03-27T07:50:06.107Z,2.30
2023-03-27T07:52:40.223Z,2.10
2023-03-27T07:55:18.531Z,2.20
2023-03-27T08:00:24.636Z,2.10
2023-03-27T08:02:58.114Z,2.27
2023-03-27T08:05:29.720Z,2.37
2023-03-27T08:08:01.347Z,1.77
2023-03-27T08:10:31.850Z,1.80
2023-03-27T08:13:02.643Z,2.07
2023-03-27T08:15:36.722Z,2.10
2023-03-27T08:18:08.656Z,1.60
2023-03-27T08:20:40.559Z,1.53
2023-03-27T08:23:11.464Z,1.60
2023-03-27T08:25:42.718Z,2.03
2023-03-27T08:28:13.695Z,1.80
2023-03-27T08:30:44.457Z,1.40
2023-03-27T08:33:17.009Z,1.50
2023-03-27T08:35:51.419Z,1.70
2023-03-27T08:38:26.878Z,2.23
2023-03-27T08:40:57.794Z,1.70
2023-03-27T08:43:33.291Z,1.70
2023-03-27T08:46:06.604Z,2.00
2023-03-27T08:48:40.150Z,1.57
2023-03-27T08:51:16.501Z,1.80
2023-03-27T08:54:04.989Z,1.60
2023-03-27T08:56:37.488Z,1.80
2023-03-27T08:59:17.463Z,1.27
2023-03-27T09:01:51.237Z,1.60
2023-03-27T09:04:53.860Z,1.40
2023-03-27T09:07:27.982Z,1.33
2023-03-27T09:10:13.458Z,1.60
2023-03-27T09:13:11.081Z,1.57
2023-03-27T09:15:59.965Z,1.50
2023-03-27T09:18:39.716Z,1.70
2023-03-27T09:21:16.844Z,1.70
2023-03-27T09:23:51.604Z,1.50
2023-03-27T09:26:26.896Z,2.13
2023-03-27T09:29:07.501Z,1.53
2023-03-27T09:31:47.419Z,1.30
2023-03-27T09:34:22.851Z,1.60
2023-03-27T09:36:56.042Z,1.50
2023-03-27T09:39:33.889Z,1.50
2023-03-27T09:42:24.038Z,1.70
2023-03-27T09:44:57.691Z,1.40
2023-03-27T09:47:42.881Z,1.70
2023-03-27T09:50:22.299Z,1.70
2023-03-27T09:52:54.491Z,1.60
2023-03-27T09:55:29.347Z,1.50
2023-03-27T09:58:04.398Z,1.23
2023-03-27T10:00:38.682Z,1.50
2023-03-27T10:03:18.357Z,1.50
2023-03-27T10:05:48.974Z,1.73
2023-03-27T10:08:44.403Z,1.70
2023-03-27T10:11:21.655Z,1.53
2023-03-27T10:13:52.858Z,1.50
2023-03-27T10:16:24.471Z,1.30
2023-03-27T10:18:57.856Z,1.37
2023-03-27T10:21:35.814Z,1.43
2023-03-27T10:24:09.253Z,1.33
2023-03-27T10:26:40.958Z,1.33
2023-03-27T10:29:26.458Z,1.40
2023-03-27T10:31:59.511Z,1.60
2023-03-27T10:34:43.497Z,1.20
2023-03-27T10:37:28.803Z,1.20
2023-03-27T10:40:02.842Z,1.30
2023-03-27T10:42:34.189Z,1.40
2023-03-27T10:45:07.688Z,1.40
2023-03-27T10:47:38.289Z,1.40
2023-03-27T10:50:29.169Z,1.40
2023-03-27T10:53:21.819Z,1.60
2023-03-27T10:55:57.038Z,1.33
2023-03-27T10:58:51.867Z,1.50
2023-03-27T11:01:28.240Z,1.33
2023-03-27T11:04:24.191Z,1.60
2023-03-27T11:06:58.189Z,1.52
2023-03-27T11:09:38.912Z,1.40
2023-03-27T11:12:12.540Z,1.70
2023-03-27T11:15:16.226Z,1.53
2023-03-27T11:17:55.583Z,1.40
2023-03-27T11:20:35.154Z,1.70
2023-03-27T11:23:08.813Z,1.20
2023-03-27T11:25:43.323Z,1.30
2023-03-27T11:28:39.808Z,1.30
2023-03-27T11:31:48.528Z,1.40
2023-03-27T11:34:32.480Z,1.27
2023-03-27T11:37:18.067Z,1.40
2023-03-27T11:40:00.795Z,1.53
2023-03-27T11:42:33.825Z,1.67
2023-03-27T11:45:08.188Z,1.70
2023-03-27T11:47:44.548Z,1.30
2023-03-27T11:50:42.789Z,1.40
2023-03-27T11:53:19.186Z,1.37
2023-03-27T11:56:09.142Z,1.60
2023-03-27T11:58:48.159Z,1.50
2023-03-27T12:01:30.603Z,1.40
2023-03-27T12:04:16.627Z,1.50
2023-03-27T12:07:12.311Z,1.40
2023-03-27T12:09:56.101Z,1.30
2023-03-27T12:12:47.406Z,2.63
2023-03-27T12:15:43.410Z,1.70
2023-03-27T12:18:27.433Z,1.20
2023-03-27T12:21:27.283Z,1.33
2023-03-27T12:24:07.192Z,1.20
2023-03-27T12:26:54.010Z,1.45
2023-03-27T12:29:39.254Z,1.47
2023-03-27T12:32:32.358Z,1.30
2023-03-27T12:35:12.945Z,1.20
2023-03-27T12:37:52.566Z,1.52
2023-03-27T12:40:39.636Z,1.20
2023-03-27T12:43:31.674Z,1.17
2023-03-27T12:46:17.078Z,1.20
2023-03-27T12:49:04.814Z,1.40
2023-03-27T12:51:57.832Z,1.27
2023-03-27T12:54:34.858Z,1.70
2023-03-27T12:57:09.971Z,1.30
2023-03-27T12:59:52.149Z,1.47
2023-03-27T13:02:49.316Z,1.27
2023-03-27T13:05:32.640Z,1.37
2023-03-27T13:08:32.146Z,1.20
2023-03-27T13:11:34.704Z,1.10
2023-03-27T13:14:27.352Z,1.90
2023-03-27T13:17:33.984Z,1.37
2023-03-27T13:20:24.070Z,1.50
2023-03-27T13:23:04.619Z,1.60
2023-03-27T13:25:47.499Z,1.20
2023-03-27T13:28:36.172Z,1.47
2023-03-27T13:31:10.518Z,1.43
2023-03-27T13:33:48.972Z,1.90
2023-03-27T13:36:23.336Z,1.80
2023-03-27T13:39:00.320Z,2.00
2023-03-27T13:41:48.449Z,1.73
2023-03-27T13:44:36.623Z,1.70
2023-03-27T13:47:25.871Z,2.00
2023-03-27T13:50:14.655Z,1.70
2023-03-27T13:53:14.288Z,1.10
2023-03-27T13:56:08.829Z,1.50
2023-03-27T13:59:01.550Z,1.87
2023-03-27T14:01:41.016Z,1.70
2023-03-27T14:04:31.076Z,1.40
2023-03-27T14:07:26.760Z,1.60
2023-03-27T14:10:03.960Z,1.60
2023-03-27T14:12:40.517Z,1.50
2023-03-27T14:15:34.305Z,1.97
2023-03-27T14:18:35.092Z,1.60
2023-03-27T14:21:09.333Z,1.30
2023-03-27T14:23:43.188Z,2.23
2023-03-27T14:26:18.744Z,1.90
2023-03-27T14:28:56.622Z,1.50
2023-03-27T14:31:28.793Z,1.60
2023-03-27T14:34:06.339Z,1.30
2023-03-27T14:36:39.720Z,1.70
2023-03-27T14:39:19.143Z,1.63
2023-03-27T14:41:55.785Z,1.70
2023-03-27T14:44:27.963Z,1.83
2023-03-27T14:47:09.332Z,1.67
2023-03-27T14:49:44.633Z,1.50
2023-03-27T14:52:19.942Z,1.50
2023-03-27T14:54:55.526Z,1.40
2023-03-27T14:57:27.772Z,1.57
2023-03-27T14:59:59.877Z,1.20
2023-03-27T15:02:34.639Z,1.47
2023-03-27T15:05:17.132Z,1.60
2023-03-27T15:07:49.159Z,1.33
2023-03-27T15:10:26.556Z,1.73
2023-03-27T15:12:57.982Z,1.50
2023-03-27T15:15:44.088Z,1.83
2023-03-27T15:18:18.767Z,1.50
2023-03-27T15:20:51.728Z,1.83
2023-03-27T15:23:31.275Z,1.37
2023-03-27T15:26:10.565Z,1.50
2023-03-27T15:28:55.803Z,1.53
2023-03-27T15:31:29.284Z,1.50
2023-03-27T15:34:05.219Z,1.60
2023-03-27T15:36:37.825Z,1.90
2023-03-27T15:39:11.475Z,1.60
2023-03-27T15:41:44.793Z,1.90
2023-03-27T15:44:23.810Z,1.70
2023-03-27T15:47:00.594Z,1.63
2023-03-27T15:49:35.551Z,1.60
2023-03-27T15:52:31.584Z,1.43
2023-03-27T15:55:04.420Z,1.33
2023-03-27T15:57:35.036Z,1.77
2023-03-27T16:00:12.473Z,1.73
2023-03-27T16:02:43.590Z,1.90
2023-03-27T16:05:17.413Z,2.08
2023-03-27T16:07:49.659Z,2.07
2023-03-27T16:10:34.334Z,2.00
2023-03-27T16:13:07.132Z,1.50
2023-03-27T16:15:47.331Z,1.80
2023-03-27T16:18:29.751Z,1.70
2023-03-27T16:21:09.248Z,2.08
2023-03-27T16:23:40.645Z,1.70
2023-03-27T16:26:16.930Z,1.30
2023-03-27T16:28:47.656Z,1.20
2023-03-27T16:31:20.175Z,1.30
2023-03-27T16:33:51.130Z,1.50
2023-03-27T16:36:34.480Z,2.10
2023-03-27T16:39:06.996Z,1.40
2023-03-27T16:41:39.223Z,1.70
2023-03-27T16:44:09.871Z,1.30
2023-03-27T16:46:40.382Z,1.73
2023-03-27T16:49:15.337Z,1.50
2023-03-27T16:51:48.030Z,1.63
2023-03-27T16:54:21.687Z,1.50
2023-03-27T16:56:53.581Z,1.50
2023-03-27T16:59:24.373Z,1.33
2023-03-27T17:01:55.387Z,1.60
2023-03-27T17:04:27.896Z,1.47
2023-03-27T17:06:58.905Z,1.40
2023-03-27T17:09:29.658Z,1.73
2023-03-27T17:12:00.940Z,1.50
2023-03-27T17:14:31.887Z,1.97
2023-03-27T17:17:02.689Z,1.57
2023-03-27T17:19:33.383Z,1.60
2023-03-27T17:22:04.215Z,1.27
2023-03-27T17:24:45.741Z,1.50
2023-03-27T17:27:07.205Z,1.20
2023-03-27T17:29:37.830Z,1.50
2023-03-27T17:32:09.039Z,1.63
2023-03-27T17:34:42.640Z,1.43
2023-03-27T17:37:13.221Z,1.70
2023-03-27T17:39:43.961Z,1.70
2023-03-27T17:42:14.426Z,1.50
2023-03-27T17:44:45.490Z,2.00
2023-03-27T17:47:16.113Z,3.77
2023-03-27T17:49:46.730Z,1.50
2023-03-27T17:52:18.055Z,2.80
2023-03-27T17:54:48.688Z,1.83
2023-03-27T17:57:19.252Z,1.80
2023-03-27T17:59:50.219Z,2.00
2023-03-27T18:02:22.685Z,1.80
2023-03-27T18:04:53.164Z,2.50
2023-03-27T18:07:24.449Z,2.10
2023-03-27T18:09:55.125Z,1.77
2023-03-27T18:12:25.573Z,2.70
2023-03-27T18:14:56.590Z,2.87
2023-03-27T18:17:27.883Z,2.37
2023-03-27T18:19:58.704Z,2.00
2023-03-27T18:22:29.288Z,2.53
2023-03-27T18:24:59.793Z,2.40
2023-03-27T18:27:30.417Z,2.60
2023-03-27T18:30:01.671Z,2.10
2023-03-27T18:32:33.637Z,2.87
2023-03-27T18:35:07.322Z,2.00
2023-03-27T18:37:39.817Z,2.10
2023-03-27T18:40:14.564Z,1.30
2023-03-27T18:42:49.185Z,1.40
2023-03-27T18:45:31.747Z,1.50
2023-03-27T18:48:02.420Z,1.80
2023-03-27T18:50:41.796Z,1.77
2023-03-27T18:53:16.199Z,1.50
2023-03-27T18:55:51.990Z,1.83
2023-03-27T18:58:26.193Z,1.80
2023-03-27T19:00:58.881Z,1.90
2023-03-27T19:03:35.434Z,1.70
2023-03-27T19:06:08.359Z,1.67
2023-03-27T19:08:42.730Z,2.10
2023-03-27T19:11:14.895Z,1.77
2023-03-27T19:13:48.570Z,1.63
2023-03-27T19:16:19.132Z,1.60
2023-03-27T19:18:50.863Z,1.63
2023-03-27T19:21:25.028Z,1.50
2023-03-27T19:23:55.643Z,1.80
2023-03-27T19:26:26.170Z,1.53
2023-03-27T19:28:57.018Z,1.50
2023-03-27T19:31:29.680Z,1.60
2023-03-27T19:34:01.869Z,1.20
2023-03-27T19:36:33.313Z,1.20
2023-03-27T19:39:04.557Z,1.20
2023-03-27T19:41:35.036Z,1.40
2023-03-27T19:44:05.589Z,1.40
2023-03-27T19:46:44.946Z,1.30
2023-03-27T19:49:17.160Z,1.30
2023-03-27T19:51:47.711Z,1.27
2023-03-27T19:54:19.103Z,1.47
2023-03-27T19:56:51.418Z,1.37
2023-03-27T19:59:30.538Z,1.00
2023-03-27T20:01:54.271Z,1.07
2023-03-27T20:04:24.757Z,1.27
2023-03-27T20:06:59.639Z,1.37
2023-03-27T20:09:30.352Z,1.40
2023-03-27T20:12:02.814Z,1.47
2023-03-27T20:14:36.187Z,1.33
2023-03-27T20:17:27.100Z,1.53
2023-03-27T20:19:48.213Z,1.50
2023-03-27T20:22:21.139Z,1.53
2023-03-27T20:24:54.564Z,1.30
2023-03-27T20:27:25.089Z,1.70
2023-03-27T20:29:55.655Z,1.50
2023-03-27T20:32:27.683Z,1.77
2023-03-27T20:35:16.546Z,1.50
2023-03-27T20:37:39.741Z,1.80
2023-03-27T20:40:12.894Z,1.63
2023-03-27T20:42:48.714Z,1.60
2023-03-27T20:45:24.557Z,1.30
2023-03-27T20:47:59.015Z,1.57
2023-03-27T20:50:31.028Z,1.70
2023-03-27T20:53:01.656Z,1.40
2023-03-27T20:55:37.579Z,1.80
2023-03-27T20:58:07.109Z,1.50
2023-03-27T21:00:38.091Z,1.30
2023-03-27T21:03:09.246Z,1.63
2023-03-27T21:05:41.155Z,1.50
2023-03-27T21:08:14.146Z,1.90
2023-03-27T21:10:51.842Z,1.60
2023-03-27T21:13:26.873Z,1.37
2023-03-27T21:15:58.686Z,1.53
2023-03-27T21:18:35.292Z,1.70
2023-03-27T21:21:06.158Z,1.70
2023-03-27T21:23:39.791Z,1.80
2023-03-27T21:26:10.484Z,1.80
2023-03-27T21:28:41.215Z,1.67
2023-03-27T21:31:13.248Z,1.50
2023-03-27T21:33:43.806Z,1.60
2023-03-27T21:36:14.876Z,1.77
2023-03-27T21:38:46.288Z,1.37
2023-03-27T21:41:20.729Z,1.50
2023-03-27T21:43:53.132Z,1.40
2023-03-27T21:46:26.832Z,1.40
2023-03-27T21:49:00.387Z,1.40
2023-03-27T21:51:33.240Z,1.10
2023-03-27T21:54:03.807Z,2.00
2023-03-27T21:56:35.261Z,1.80
2023-03-27T21:59:05.796Z,1.40
2023-03-27T22:01:36.996Z,1.50
2023-03-27T22:04:11.756Z,1.40
2023-03-27T22:06:45.113Z,1.53
2023-03-27T22:09:17.040Z,1.97
2023-03-27T22:11:49.271Z,1.40
2023-03-27T22:14:21.621Z,1.80
2023-03-27T22:16:52.438Z,1.50
2023-03-27T22:19:23.457Z,2.10
2023-03-27T22:21:54.064Z,1.70
2023-03-27T22:24:25.850Z,1.97
2023-03-27T22:26:57.177Z,1.70
2023-03-27T22:29:27.905Z,1.50
2023-03-27T22:31:58.439Z,1.87
2023-03-27T22:34:29.088Z,1.77
2023-03-27T22:37:01.624Z,1.70
2023-03-27T22:39:32.220Z,2.03
2023-03-27T22:42:04.353Z,1.30
2023-03-27T22:44:34.925Z,1.50
2023-03-27T22:47:05.726Z,1.40
2023-03-27T22:49:39.200Z,1.83
2023-03-27T22:52:09.972Z,1.53
2023-03-27T22:54:40.743Z,1.57
2023-03-27T22:57:11.435Z,1.53
2023-03-27T22:59:43.162Z,1.50
2023-03-27T23:02:13.726Z,1.53
2023-03-27T23:04:44.544Z,1.83
2023-03-27T23:07:15.448Z,1.50
2023-03-27T23:09:46.084Z,1.30
2023-03-27T23:12:16.664Z,1.27
2023-03-27T23:14:47.421Z,1.43
2023-03-27T23:17:18.294Z,1.40
2023-03-27T23:19:50.133Z,1.20
2023-03-27T23:22:20.943Z,1.20
2023-03-27T23:24:51.763Z,1.27
2023-03-27T23:27:23.536Z,1.50
2023-03-27T23:29:56.818Z,1.20
2023-03-27T23:32:36.809Z,1.33
2023-03-27T23:35:09.599Z,1.20
2023-03-27T23:37:41.627Z,1.20
2023-03-27T23:40:12.383Z,1.37
2023-03-27T23:42:43.808Z,1.23
2023-03-27T23:45:14.759Z,1.30
2023-03-27T23:47:45.462Z,1.40
2023-03-27T23:50:16.084Z,1.33
2023-03-27T23:52:46.678Z,1.30
2023-03-27T23:55:18.864Z,1.47
2023-03-27T23:57:49.389Z,1.00
